Time;durP1;ratioP1;P1;durP2;ratioP2;P2;SDS_P1;SDS_P2;PMS_P1;PMS_P2;Temp;Humidity;BMP_temperature;BMP_pressure;BME280_temperature;BME280_humidity;BME280_pressure;Samples;Min_cycle;Max_cycle;Signal;HPM_P1;HPM_P2
2022/04/25 00:00:27;;;;;;;;;;;;;;;9.44;74.15;98315.38;5095807;28;19920;-73
2022/04/25 00:02:57;;;;;;;;;;;;;;;9.48;73.91;98320.44;5095671;28;20415;-73
2022/04/25 00:05:28;;;;;;;;;;;;;;;9.55;74.14;98324.53;5095918;28;19985;-74
2022/04/25 00:07:57;;;;;;;;;;;;;;;9.59;73.51;98331.25;5094517;28;19999;-73
2022/04/25 00:10:25;;;;;;;;;;;;;;;9.57;74.08;98316.00;5095949;28;20289;-74
2022/04/25 00:12:55;;;;;;;;;;;;;;;9.45;74.18;98317.03;5094799;28;19977;-74
2022/04/25 00:15:27;;;;;;;;;;;;;;;9.38;74.33;98324.84;5094627;28;19920;-74
2022/04/25 00:17:55;;;;;;;;;;;;;;;9.44;74.54;98320.47;5095904;28;20270;-74
2022/04/25 00:20:24;;;;;;;;;;;;;;;9.48;74.25;98320.44;5094357;28;19924;-74
2022/04/25 00:22:54;;;;;;;;;;;;;;;9.49;73.89;98322.09;5095368;28;20361;-74
2022/04/25 00:25:25;;;;;;;;;;;;;;;9.57;74.79;98321.09;5095693;28;20365;-74
2022/04/25 00:27:54;;;;;;;;;;;;;;;9.66;74.76;98328.56;5095343;28;20014;-74
2022/04/25 00:30:24;;;;;;;;;;;;;;;9.73;74.15;98326.72;5095101;28;19969;-74
2022/04/25 00:32:53;;;;;;;;;;;;;;;9.77;73.93;98328.34;5095494;28;20370;-74
2022/04/25 00:35:22;;;;;;;;;;;;;;;9.80;73.45;98323.19;5095196;28;19927;-74
2022/04/25 00:37:50;;;;;;;;;;;;;;;9.80;73.68;98324.03;5095052;28;19919;-74
2022/04/25 00:40:21;;;;;;;;;;;;;;;9.78;73.24;98327.47;5095386;28;19965;-74
2022/04/25 00:42:51;;;;;;;;;;;;;;;9.78;73.13;98324.94;5095070;28;19924;-74
2022/04/25 00:45:20;;;;;;;;;;;;;;;9.65;73.40;98333.66;5095277;28;19924;-74
2022/04/25 00:47:49;;;;;;;;;;;;;;;9.60;73.65;98340.59;5094887;28;19924;-74
2022/04/25 00:50:17;;;;;;;;;;;;;;;9.54;73.41;98335.59;5093956;28;19947;-74
2022/04/25 00:52:46;;;;;;;;;;;;;;;9.39;73.76;98341.78;5094220;28;19970;-74
2022/04/25 00:55:15;;;;;;;;;;;;;;;9.24;73.62;98345.44;5077118;28;19942;-74
2022/04/25 00:57:45;;;;;;;;;;;;;;;9.20;74.11;98345.50;5094729;28;19920;-74
2022/04/25 01:00:15;;;;;;;;;;;;;;;9.18;74.28;98348.09;5094886;28;19920;-74
2022/04/25 01:02:44;;;;;;;;;;;;;;;9.18;74.14;98335.38;5094445;28;19920;-74
2022/04/25 01:05:12;;;;;;;;;;;;;;;9.21;75.16;98337.84;5077103;28;20341;-75
2022/04/25 01:07:41;;;;;;;;;;;;;;;9.21;74.89;98340.38;5093158;28;19942;-75
2022/04/25 01:10:11;;;;;;;;;;;;;;;9.15;75.44;98343.06;5076471;28;19974;-75
2022/04/25 01:12:40;;;;;;;;;;;;;;;9.14;75.97;98341.34;5094549;28;19924;-76
2022/04/25 01:15:11;;;;;;;;;;;;;;;9.17;75.30;98338.78;5094714;28;19974;-74
2022/04/25 01:17:40;;;;;;;;;;;;;;;9.21;75.74;98337.84;5093207;28;19955;-75
2022/04/25 01:20:09;;;;;;;;;;;;;;;9.34;76.10;98339.31;5094783;28;19924;-75
2022/04/25 01:22:41;;;;;;;;;;;;;;;9.44;75.83;98345.09;5094710;28;19920;-75
2022/04/25 01:27:50;;;;;;;;;;;;;;;9.27;76.03;98332.66;5094355;28;19920;-75
2022/04/25 01:30:19;;;;;;;;;;;;;;;9.26;75.60;98330.97;5094259;28;20408;-75
2022/04/25 01:32:48;;;;;;;;;;;;;;;9.27;76.16;98327.56;5094790;28;20393;-75
2022/04/25 01:35:17;;;;;;;;;;;;;;;9.31;75.84;98328.34;5094486;28;19977;-75
2022/04/25 01:37:45;;;;;;;;;;;;;;;9.34;76.39;98328.28;5094400;28;20268;-74
2022/04/25 01:40:15;;;;;;;;;;;;;;;9.36;76.43;98331.66;5092996;28;19920;-74
2022/04/25 01:42:44;;;;;;;;;;;;;;;9.38;75.48;98335.03;5094146;28;19969;-75
2022/04/25 01:45:13;;;;;;;;;;;;;;;9.44;75.94;98333.22;5094263;28;19920;-75
2022/04/25 01:47:41;;;;;;;;;;;;;;;9.49;75.94;98339.91;5093830;28;20300;-75
2022/04/25 01:50:10;;;;;;;;;;;;;;;9.53;76.69;98334.75;5092404;28;19920;-75
2022/04/25 01:52:39;;;;;;;;;;;;;;;9.60;76.57;98326.13;5093780;28;19983;-74
2022/04/25 01:55:08;;;;;;;;;;;;;;;9.67;76.06;98329.41;5093173;28;19927;-74
2022/04/25 01:57:38;;;;;;;;;;;;;;;9.68;75.79;98325.97;5093203;28;20370;-75
2022/04/25 02:00:08;;;;;;;;;;;;;;;9.73;75.53;98326.72;5093943;28;20015;-75
2022/04/25 02:02:36;;;;;;;;;;;;;;;9.76;75.93;98331.78;5093811;28;20378;-73
2022/04/25 02:05:06;;;;;;;;;;;;;;;9.79;75.65;98339.38;5092727;28;19973;-73
2022/04/25 02:07:35;;;;;;;;;;;;;;;9.80;75.46;98343.56;5094700;28;19932;-74
2022/04/25 02:10:04;;;;;;;;;;;;;;;9.78;74.97;98345.31;5092665;28;19926;-73
2022/04/25 02:12:32;;;;;;;;;;;;;;;9.81;75.61;98345.25;5093048;28;19923;-74
2022/04/25 02:15:03;;;;;;;;;;;;;;;9.83;75.06;98333.34;5091822;28;19920;-73
2022/04/25 02:17:31;;;;;;;;;;;;;;;9.86;74.84;98333.28;5093098;28;19955;-73
2022/04/25 02:20:00;;;;;;;;;;;;;;;9.92;74.38;98328.06;5093781;28;19920;-74
2022/04/25 02:22:29;;;;;;;;;;;;;;;9.95;74.80;98330.53;5078789;28;19920;-74
2022/04/25 02:24:58;;;;;;;;;;;;;;;9.98;74.59;98327.94;5078792;28;19924;-74
2022/04/25 02:27:27;;;;;;;;;;;;;;;9.93;74.97;98324.66;5095661;28;20007;-73
2022/04/25 02:29:58;;;;;;;;;;;;;;;9.95;74.81;98330.53;5095912;28;20263;-73
2022/04/25 02:32:30;;;;;;;;;;;;;;;9.98;74.37;98335.59;5096776;28;19926;-73
2022/04/25 02:34:59;;;;;;;;;;;;;;;9.98;75.05;98336.41;5097317;28;20352;-73
2022/04/25 02:37:28;;;;;;;;;;;;;;;10.01;74.65;98335.50;5097041;28;20322;-74
2022/04/25 02:39:57;;;;;;;;;;;;;;;10.06;74.92;98336.25;5096735;28;19967;-74
2022/04/25 02:42:26;;;;;;;;;;;;;;;10.09;74.88;98336.19;5078970;28;19920;-73
2022/04/25 02:44:55;;;;;;;;;;;;;;;10.16;74.85;98345.44;5096559;28;19919;-74
2022/04/25 02:47:24;;;;;;;;;;;;;;;10.23;74.78;98349.53;5095273;28;19973;-74
2022/04/25 02:49:55;;;;;;;;;;;;;;;10.21;75.16;98351.28;5096428;28;19920;-74
2022/04/25 02:52:24;;;;;;;;;;;;;;;10.19;74.86;98358.13;5079129;28;20388;-74
2022/04/25 02:54:52;;;;;;;;;;;;;;;10.24;75.35;98358.88;5095419;28;19966;-74
2022/04/25 02:57:21;;;;;;;;;;;;;;;10.23;75.36;98357.19;5096254;28;19920;-74
2022/04/25 02:59:50;;;;;;;;;;;;;;;10.25;75.02;98359.69;5095022;28;19920;-74
2022/04/25 03:02:19;;;;;;;;;;;;;;;10.24;74.86;98366.53;5077718;28;19927;-74
2022/04/25 03:04:48;;;;;;;;;;;;;;;10.23;74.89;98375.03;5096657;28;19924;-74
2022/04/25 03:07:18;;;;;;;;;;;;;;;10.18;74.60;98371.72;5096210;28;19926;-74
2022/04/25 03:09:47;;;;;;;;;;;;;;;10.07;75.14;98350.69;5095260;28;19926;-73
2022/04/25 03:12:18;;;;;;;;;;;;;;;10.08;74.89;98371.03;5096132;28;19973;-74
2022/04/25 03:14:47;;;;;;;;;;;;;;;9.98;75.28;98374.63;5096261;28;19943;-73
2022/04/25 03:17:16;;;;;;;;;;;;;;;9.89;75.38;98366.31;5095967;28;20342;-73
2022/04/25 03:19:44;;;;;;;;;;;;;;;9.88;75.90;98368.06;5096129;28;20337;-74
2022/04/25 03:22:13;;;;;;;;;;;;;;;9.78;76.37;98370.78;5095976;28;19920;-74
2022/04/25 03:24:43;;;;;;;;;;;;;;;9.64;76.04;98368.50;5094886;28;19920;-73
2022/04/25 03:27:12;;;;;;;;;;;;;;;9.64;76.60;98372.75;5095805;28;19920;-74
2022/04/25 03:29:41;;;;;;;;;;;;;;;9.50;76.79;98382.34;5095767;28;19951;-74
2022/04/25 03:32:10;;;;;;;;;;;;;;;9.41;76.92;98386.72;5095900;28;20337;-73
2022/04/25 03:34:39;;;;;;;;;;;;;;;9.31;77.90;98377.56;5095900;28;19924;-73
2022/04/25 03:37:07;;;;;;;;;;;;;;;9.37;77.73;98389.34;5095634;28;19920;-73
2022/04/25 03:39:36;;;;;;;;;;;;;;;9.39;77.94;98382.53;5095247;28;19949;-73
2022/04/25 03:42:07;;;;;;;;;;;;;;;9.43;78.44;98382.44;5095462;28;19920;-73
2022/04/25 03:44:35;;;;;;;;;;;;;;;9.42;78.43;98378.25;5096035;28;20357;-73
2022/04/25 03:47:04;;;;;;;;;;;;;;;9.45;78.13;98378.16;5095698;28;20280;-73
2022/04/25 03:49:34;;;;;;;;;;;;;;;9.55;78.55;98378.03;5095225;28;19927;-75
2022/04/25 03:52:04;;;;;;;;;;;;;;;9.60;78.01;98376.25;5095323;28;19927;-75
2022/04/25 03:57:14;;;;;;;;;;;;;;;9.60;78.31;98376.25;5095275;28;19963;-75
2022/04/25 03:59:43;;;;;;;;;;;;;;;9.63;78.64;98365.97;5095772;28;20396;-75
2022/04/25 04:02:12;;;;;;;;;;;;;;;9.68;78.71;98371.81;5095794;28;19920;-75
2022/04/25 04:04:41;;;;;;;;;;;;;;;9.67;78.10;98370.16;5094683;28;19920;-75
2022/04/25 04:07:10;;;;;;;;;;;;;;;9.64;78.29;98381.25;5096319;28;20311;-75
2022/04/25 04:12:19;;;;;;;;;;;;;;;9.79;78.20;98380.13;5095710;28;19920;-75
2022/04/25 04:14:48;;;;;;;;;;;;;;;9.82;78.60;98387.69;5095976;28;19928;-75
2022/04/25 04:17:17;;;;;;;;;;;;;;;9.85;78.71;98393.59;5095505;28;19920;-75
2022/04/25 04:19:48;;;;;;;;;;;;;;;9.90;79.31;98396.03;5095268;28;20366;-74
2022/04/25 04:22:16;;;;;;;;;;;;;;;9.98;79.21;98399.31;5095427;28;20014;-73
2022/04/25 04:24:45;;;;;;;;;;;;;;;10.08;78.75;98400.78;5095367;28;19920;-73
2022/04/25 04:27:15;;;;;;;;;;;;;;;10.15;78.62;98402.38;5095641;28;19920;-73
2022/04/25 04:29:45;;;;;;;;;;;;;;;10.23;78.54;98397.97;5095209;28;19947;-74
2022/04/25 04:32:15;;;;;;;;;;;;;;;10.29;78.09;98397.03;5095677;28;19920;-75
2022/04/25 04:34:43;;;;;;;;;;;;;;;10.36;77.83;98403.66;5095571;28;19927;-75
2022/04/25 04:37:12;;;;;;;;;;;;;;;10.41;77.73;98405.28;5095231;28;19920;-76
2022/04/25 04:39:41;;;;;;;;;;;;;;;10.45;77.47;98406.88;5077209;28;19931;-75
2022/04/25 04:42:09;;;;;;;;;;;;;;;10.48;77.15;98405.97;5095158;28;20370;-74
2022/04/25 04:44:38;;;;;;;;;;;;;;;10.52;76.87;98408.41;5094746;28;19965;-74
2022/04/25 04:47:09;;;;;;;;;;;;;;;10.54;77.03;98404.13;5094954;28;19927;-73
2022/04/25 04:49:38;;;;;;;;;;;;;;;10.55;77.07;98410.91;5095907;28;19927;-74
2022/04/25 04:52:07;;;;;;;;;;;;;;;10.59;77.11;98420.16;5094919;28;20018;-75
2022/04/25 04:54:36;;;;;;;;;;;;;;;10.63;76.92;98426.88;5094483;28;20348;-75
2022/04/25 04:57:05;;;;;;;;;;;;;;;10.61;77.03;98423.53;5094752;28;19927;-75
2022/04/25 04:59:33;;;;;;;;;;;;;;;10.59;76.77;98424.44;5093461;28;19965;-75
2022/04/25 05:02:06;;;;;;;;;;;;;;;10.60;77.12;98432.06;5093173;28;19920;-73
2022/04/25 05:04:38;;;;;;;;;;;;;;;10.58;76.25;98428.69;5094780;28;19927;-73
2022/04/25 05:07:06;;;;;;;;;;;;;;;10.55;76.18;98431.31;5093518;28;19920;-74
2022/04/25 05:09:35;;;;;;;;;;;;;;;10.56;76.07;98429.59;5094908;28;19920;-74
2022/04/25 05:12:04;;;;;;;;;;;;;;;10.59;76.21;98435.47;5094867;28;19963;-74
2022/04/25 05:14:32;;;;;;;;;;;;;;;10.63;76.25;98426.03;5093617;28;19924;-74
2022/04/25 05:17:01;;;;;;;;;;;;;;;10.67;76.28;98433.63;5094447;28;19927;-74
2022/04/25 05:19:30;;;;;;;;;;;;;;;10.71;75.60;98440.31;5094414;28;19920;-74
2022/04/25 05:22:01;;;;;;;;;;;;;;;10.72;75.95;98446.28;5093052;28;19923;-74
2022/04/25 05:24:30;;;;;;;;;;;;;;;10.70;75.91;98450.56;5094288;28;19954;-73
2022/04/25 05:26:58;;;;;;;;;;;;;;;10.67;76.15;98453.19;5094610;28;19927;-73
2022/04/25 05:29:27;;;;;;;;;;;;;;;10.57;76.87;98451.69;5094322;28;19965;-73
2022/04/25 05:31:56;;;;;;;;;;;;;;;10.52;76.81;98461.13;5059885;28;19920;-73
2022/04/25 05:34:39;;;;;;;;;;;;;;;10.59;77.22;98461.00;5094921;28;20052;-73
2022/04/25 05:37:09;;;;;;;;;;;;;;;10.56;77.51;98458.50;5076651;28;19927;-73
2022/04/25 05:39:38;;;;;;;;;;;;;;;10.55;77.63;98456.00;5094470;28;19955;-74
2022/04/25 05:42:08;;;;;;;;;;;;;;;10.59;78.01;98458.44;5094124;28;19959;-74
2022/04/25 05:44:36;;;;;;;;;;;;;;;10.63;78.03;98456.66;5094500;28;19923;-73
2022/04/25 05:47:06;;;;;;;;;;;;;;;10.71;78.04;98460.75;5094064;28;20366;-74
2022/04/25 05:52:14;;;;;;;;;;;;;;;10.98;77.97;98464.41;5094352;28;19920;-74
2022/04/25 05:54:47;;;;;;;;;;;;;;;11.06;77.44;98456.59;5093423;28;19920;-75
2022/04/25 05:57:16;;;;;;;;;;;;;;;11.18;76.99;98458.88;5097030;28;19919;-75
2022/04/25 05:59:45;;;;;;;;;;;;;;;11.39;76.22;98463.47;5098515;28;20427;-75
2022/04/25 06:02:16;;;;;;;;;;;;;;;11.54;75.68;98465.66;5097761;28;20382;-74
2022/04/25 06:04:46;;;;;;;;;;;;;;;11.65;75.33;98461.13;5098511;28;19920;-75
2022/04/25 06:07:16;;;;;;;;;;;;;;;11.81;74.16;98465.00;5098241;28;20327;-74
2022/04/25 06:09:45;;;;;;;;;;;;;;;12.00;74.03;98465.38;5098401;28;19942;-75
2022/04/25 06:12:14;;;;;;;;;;;;;;;12.31;73.74;98471.34;5096463;28;19919;-74
2022/04/25 06:14:44;;;;;;;;;;;;;;;12.41;73.29;98471.94;5097315;28;19920;-73
2022/04/25 06:17:15;;;;;;;;;;;;;;;12.46;72.65;98470.09;5097792;28;20038;-73
2022/04/25 06:19:43;;;;;;;;;;;;;;;12.56;72.62;98471.53;5097772;28;19927;-74
2022/04/25 06:22:12;;;;;;;;;;;;;;;12.48;72.47;98473.44;5097805;28;19920;-73
2022/04/25 06:24:42;;;;;;;;;;;;;;;12.41;72.66;98477.06;5097207;28;19928;-75
2022/04/25 06:27:11;;;;;;;;;;;;;;;12.49;72.79;98470.00;5077446;28;20444;-74
2022/04/25 06:29:44;;;;;;;;;;;;;;;12.52;72.61;98469.94;5077169;28;19921;-73
2022/04/25 06:32:13;;;;;;;;;;;;;;;12.56;72.39;98484.31;5077138;28;19920;-74
2022/04/25 06:34:42;;;;;;;;;;;;;;;12.50;72.56;98481.94;5076858;28;19922;-76
2022/04/25 06:37:11;;;;;;;;;;;;;;;12.45;73.00;98494.84;5059200;28;19930;-74
2022/04/25 06:39:40;;;;;;;;;;;;;;;12.41;73.08;98494.97;5077141;28;19960;-72
2022/04/25 06:42:10;;;;;;;;;;;;;;;12.36;73.51;98501.91;5075104;28;19920;-75
2022/04/25 06:44:39;;;;;;;;;;;;;;;12.44;73.99;98502.56;5095922;28;19919;-73
2022/04/25 06:47:08;;;;;;;;;;;;;;;12.49;73.97;98500.72;5097343;28;19943;-73
2022/04/25 06:49:38;;;;;;;;;;;;;;;12.55;74.12;98495.41;5095027;28;19958;-73
2022/04/25 06:52:09;;;;;;;;;;;;;;;12.63;74.10;98503.75;5097017;28;19920;-73
2022/04/25 06:54:38;;;;;;;;;;;;;;;12.67;73.99;98505.31;5062738;28;19927;-73
2022/04/25 06:57:13;;;;;;;;;;;;;;;12.62;73.58;98512.31;5096898;28;19920;-72
2022/04/25 06:59:43;;;;;;;;;;;;;;;12.65;73.55;98507.94;5096932;28;19928;-72
2022/04/25 07:02:13;;;;;;;;;;;;;;;12.76;73.31;98505.09;5078390;28;20808;-75
2022/04/25 07:04:43;;;;;;;;;;;;;;;12.91;72.90;98499.50;5095833;28;19943;-73
2022/04/25 07:07:12;;;;;;;;;;;;;;;13.07;71.90;98508.47;5096623;28;19920;-75
2022/04/25 07:09:40;;;;;;;;;;;;;;;13.05;71.27;98502.50;5096588;28;20507;-74
2022/04/25 07:12:09;;;;;;;;;;;;;;;13.05;71.10;98504.25;5096712;28;19920;-75
2022/04/25 07:14:40;;;;;;;;;;;;;;;13.10;71.10;98508.34;5095521;28;20408;-75
2022/04/25 07:17:09;;;;;;;;;;;;;;;13.17;70.21;98502.16;5096310;28;19964;-74
2022/04/25 07:19:39;;;;;;;;;;;;;;;13.22;70.16;98504.63;5096683;28;19924;-75
2022/04/25 07:30:06;;;;;;;;;;;;;;;13.09;70.26;98511.81;5096479;28;19955;-72
2022/04/25 07:32:37;;;;;;;;;;;;;;;13.12;70.80;98509.19;5095783;28;19924;-72
2022/04/25 07:35:07;;;;;;;;;;;;;;;13.10;70.49;98510.91;5093968;28;19925;-75
2022/04/25 07:37:36;;;;;;;;;;;;;;;13.14;70.54;98517.66;5090784;28;20031;-75
2022/04/25 07:40:08;;;;;;;;;;;;;;;13.15;71.25;98524.44;5095274;28;19920;-72
2022/04/25 07:42:38;;;;;;;;;;;;;;;13.21;71.61;98526.84;5096114;28;19927;-71
2022/04/25 07:45:09;;;;;;;;;;;;;;;13.27;71.44;98521.50;5094596;28;19927;-71
2022/04/25 07:47:39;;;;;;;;;;;;;;;13.37;70.26;98525.47;5080912;28;19920;-71
2022/04/25 07:50:08;;;;;;;;;;;;;;;13.57;69.88;98518.88;5083760;28;19920;-72
2022/04/25 07:52:37;;;;;;;;;;;;;;;13.62;69.44;98522.16;5076527;28;19921;-71
2022/04/25 07:55:06;;;;;;;;;;;;;;;13.93;69.19;98526.25;5075761;28;20340;-71
2022/04/25 07:57:35;;;;;;;;;;;;;;;14.26;68.94;98538.84;5076025;28;19921;-72
2022/04/25 08:00:04;;;;;;;;;;;;;;;14.38;68.05;98529.03;5075865;28;19924;-71
2022/04/25 08:02:38;;;;;;;;;;;;;;;14.54;67.56;98529.34;5073889;28;19924;-71
2022/04/25 08:05:07;;;;;;;;;;;;;;;14.47;67.59;98531.28;5075698;28;19928;-71
2022/04/25 08:07:37;;;;;;;;;;;;;;;14.43;67.74;98537.41;5075334;28;19920;-71
2022/04/25 08:10:07;;;;;;;;;;;;;;;14.40;67.25;98536.66;5075899;28;19920;-73
2022/04/25 08:18:13;;;;;;;;;;;;;;;15.04;65.83;98530.09;5075966;28;19951;-71
2022/04/25 08:20:42;;;;;;;;;;;;;;;15.25;65.43;98535.25;5074844;28;19932;-75
2022/04/25 08:23:13;;;;;;;;;;;;;;;15.33;64.27;98534.97;5091396;28;19923;-72
2022/04/25 08:25:42;;;;;;;;;;;;;;;15.36;63.54;98537.41;5089114;28;19973;-71
2022/04/25 08:28:11;;;;;;;;;;;;;;;15.45;63.78;98544.81;5094979;28;19965;-71
2022/04/25 08:30:40;;;;;;;;;;;;;;;15.43;63.31;98543.97;5092144;28;19926;-71
2022/04/25 08:33:11;;;;;;;;;;;;;;;15.43;62.77;98539.69;5093888;28;19920;-71
2022/04/25 08:35:40;;;;;;;;;;;;;;;15.49;63.06;98543.78;5095316;28;20281;-71
2022/04/25 08:38:09;;;;;;;;;;;;;;;15.67;63.15;98550.78;5090597;28;19959;-74
2022/04/25 08:40:39;;;;;;;;;;;;;;;15.72;63.21;98546.28;5091726;28;19951;-72
2022/04/25 08:43:09;;;;;;;;;;;;;;;15.73;62.56;98540.25;5094727;28;20251;-73
2022/04/25 08:45:38;;;;;;;;;;;;;;;15.80;61.66;98544.25;5092845;28;19920;-71
2022/04/25 08:48:09;;;;;;;;;;;;;;;15.93;61.56;98550.56;5094969;28;19947;-74
2022/04/25 08:50:40;;;;;;;;;;;;;;;15.95;61.48;98543.66;5092841;28;19943;-71
2022/04/25 08:53:08;;;;;;;;;;;;;;;16.10;61.47;98547.31;5094825;28;19989;-71
2022/04/25 08:55:38;;;;;;;;;;;;;;;16.31;61.84;98548.19;5093629;28;19920;-71
2022/04/25 08:58:07;;;;;;;;;;;;;;;16.25;61.81;98551.00;5095061;28;19963;-71
2022/04/25 09:00:37;;;;;;;;;;;;;;;16.19;62.14;98556.41;5094706;28;19959;-72
2022/04/25 09:03:05;;;;;;;;;;;;;;;15.93;62.16;98554.91;5093409;28;20366;-71
2022/04/25 09:05:36;;;;;;;;;;;;;;;15.77;62.35;98554.66;5094360;28;20431;-72
2022/04/25 09:08:08;;;;;;;;;;;;;;;15.60;62.14;98551.91;5086518;28;19924;-73
2022/04/25 09:10:40;;;;;;;;;;;;;;;15.34;62.58;98567.47;5074478;28;20358;-72
2022/04/25 09:13:10;;;;;;;;;;;;;;;15.11;62.89;98577.78;5074264;28;20374;-73
2022/04/25 09:15:39;;;;;;;;;;;;;;;14.78;63.67;98580.66;5083716;28;19920;-75
2022/04/25 09:18:08;;;;;;;;;;;;;;;14.50;64.90;98585.09;5074109;28;19920;-75
2022/04/25 09:20:43;;;;;;;;;;;;;;;14.36;65.66;98589.00;5074184;28;20436;-74
2022/04/25 09:23:22;;;;;;;;;;;;;;;14.30;65.80;98592.59;5074035;28;19959;-75
2022/04/25 09:26:01;;;;;;;;;;;;;;;14.18;65.89;98595.53;5076845;28;19966;-75
2022/04/25 09:28:30;;;;;;;;;;;;;;;14.06;66.83;98593.38;5082739;28;19965;-73
2022/04/25 09:31:01;;;;;;;;;;;;;;;14.04;67.18;98600.28;5094292;28;20316;-71
2022/04/25 09:33:31;;;;;;;;;;;;;;;13.95;67.57;98605.72;5077368;28;19962;-72
2022/04/25 09:35:59;;;;;;;;;;;;;;;13.76;68.96;98609.75;5072625;28;19921;-73
2022/04/25 09:38:33;;;;;;;;;;;;;;;13.62;70.21;98614.44;5084057;28;19929;-72
2022/04/25 09:41:02;;;;;;;;;;;;;;;13.56;70.90;98618.03;5075292;28;19928;-74
2022/04/25 09:43:31;;;;;;;;;;;;;;;13.53;71.43;98617.28;5073696;28;19920;-72
2022/04/25 09:46:01;;;;;;;;;;;;;;;13.50;72.33;98617.38;5073056;28;19959;-72
2022/04/25 09:48:30;;;;;;;;;;;;;;;13.50;72.83;98628.47;5074111;28;19920;-72
2022/04/25 09:50:59;;;;;;;;;;;;;;;13.60;73.47;98619.63;5073692;28;19920;-74
2022/04/25 09:53:42;;;;;;;;;;;;;;;13.70;73.35;98627.88;5075089;28;19921;-72
2022/04/25 09:56:12;;;;;;;;;;;;;;;13.79;72.71;98625.88;5090370;28;19949;-73
2022/04/25 09:58:43;;;;;;;;;;;;;;;13.92;72.33;98631.44;5090724;28;20014;-73
2022/04/25 10:01:13;;;;;;;;;;;;;;;13.96;71.91;98631.31;5090232;28;19920;-72
2022/04/25 10:03:42;;;;;;;;;;;;;;;14.05;71.34;98619.94;5091744;28;19920;-72
2022/04/25 10:06:12;;;;;;;;;;;;;;;14.13;70.74;98625.69;5093447;28;19959;-72
2022/04/25 10:08:43;;;;;;;;;;;;;;;14.29;70.66;98626.84;5093737;28;19923;-72
2022/04/25 10:11:14;;;;;;;;;;;;;;;14.35;70.12;98624.09;5094162;28;19959;-72
2022/04/25 10:13:56;;;;;;;;;;;;;;;14.55;69.72;98628.56;5091320;28;19924;-73
2022/04/25 10:16:35;;;;;;;;;;;;;;;14.75;69.08;98627.03;5090194;28;20018;-71
2022/04/25 10:19:06;;;;;;;;;;;;;;;14.90;67.92;98632.53;5081579;28;19973;-73
2022/04/25 10:21:37;;;;;;;;;;;;;;;14.98;67.28;98623.63;5091710;28;19920;-73
2022/04/25 10:24:10;;;;;;;;;;;;;;;15.03;67.33;98626.03;5091925;28;19956;-75
2022/04/25 10:26:40;;;;;;;;;;;;;;;15.19;66.79;98617.72;5079983;28;19920;-72
2022/04/25 10:29:12;;;;;;;;;;;;;;;15.50;66.14;98622.59;5093025;28;20369;-71
2022/04/25 10:31:42;;;;;;;;;;;;;;;15.64;64.33;98628.09;5092845;28;20369;-76
2022/04/25 10:34:14;;;;;;;;;;;;;;;15.55;63.80;98625.84;5092168;28;19920;-72
2022/04/25 10:36:47;;;;;;;;;;;;;;;15.64;64.17;98630.66;5092328;28;19970;-73
2022/04/25 10:39:19;;;;;;;;;;;;;;;15.68;63.79;98629.63;5086676;28;20019;-72
2022/04/25 10:44:53;;;;;;;;;;;;;;;15.63;63.91;98636.69;5076582;28;20003;-72
2022/04/25 10:47:24;;;;;;;;;;;;;;;15.63;64.03;98628.97;5077112;28;19927;-72
2022/04/25 10:50:02;;;;;;;;;;;;;;;15.78;64.19;98633.53;5076425;28;19958;-73
2022/04/25 10:52:43;;;;;;;;;;;;;;;15.85;63.44;98645.28;5086876;28;19920;-72
2022/04/25 10:55:14;;;;;;;;;;;;;;;15.83;62.58;98651.38;5076845;28;19928;-72
2022/04/25 10:57:58;;;;;;;;;;;;;;;15.77;62.44;98652.44;5076737;28;20332;-72
2022/04/25 11:00:37;;;;;;;;;;;;;;;15.69;62.12;98667.31;5076404;28;20297;-72
2022/04/25 11:03:07;;;;;;;;;;;;;;;15.60;63.31;98665.09;5058366;28;19969;-72
2022/04/25 11:05:36;;;;;;;;;;;;;;;15.56;64.67;98673.81;5076643;28;19966;-72
2022/04/25 11:08:16;;;;;;;;;;;;;;;15.54;66.05;98678.19;5075497;28;19956;-72
2022/04/25 11:10:46;;;;;;;;;;;;;;;15.55;66.09;98682.41;5076896;28;20011;-72
2022/04/25 11:13:23;;;;;;;;;;;;;;;15.56;65.68;98678.13;5075548;28;20064;-72
2022/04/25 11:15:53;;;;;;;;;;;;;;;15.55;65.30;98685.00;5076571;28;19928;-72
2022/04/25 11:18:21;;;;;;;;;;;;;;;15.57;65.27;98685.81;5075145;28;19928;-72
2022/04/25 11:20:57;;;;;;;;;;;;;;;15.56;64.47;98678.97;5076081;28;20386;-71
2022/04/25 11:23:28;;;;;;;;;;;;;;;15.59;64.81;98694.31;5081096;28;19949;-73
2022/04/25 11:26:00;;;;;;;;;;;;;;;15.65;65.14;98688.06;5093838;28;20250;-72
2022/04/25 11:28:29;;;;;;;;;;;;;;;15.73;65.55;98693.78;5089502;28;19920;-71
2022/04/25 11:31:09;;;;;;;;;;;;;;;15.76;64.96;98699.66;5061840;28;19921;-73
2022/04/25 11:33:42;;;;;;;;;;;;;;;15.70;64.78;98702.44;5083895;28;19949;-71
2022/04/25 11:36:14;;;;;;;;;;;;;;;15.68;65.02;98704.25;5079699;28;19920;-74
2022/04/25 11:41:24;;;;;;;;;;;;;;;15.57;65.00;98716.66;5076332;28;19942;-74
2022/04/25 11:43:52;;;;;;;;;;;;;;;15.52;64.96;98722.88;5075598;28;20015;-72
2022/04/25 11:46:21;;;;;;;;;;;;;;;15.47;65.38;98730.75;5075967;28;19974;-73
2022/04/25 11:48:50;;;;;;;;;;;;;;;15.38;66.48;98725.88;5075515;28;19921;-72
2022/04/25 11:51:23;;;;;;;;;;;;;;;15.26;67.91;98727.16;5078986;28;19924;-72
2022/04/25 11:53:52;;;;;;;;;;;;;;;15.20;68.40;98722.22;5093792;28;19920;-73
2022/04/25 11:56:22;;;;;;;;;;;;;;;15.19;68.58;98724.84;5094706;28;19957;-72
2022/04/25 11:58:53;;;;;;;;;;;;;;;15.16;68.72;98719.81;5089078;28;19923;-73
2022/04/25 12:01:33;;;;;;;;;;;;;;;15.24;68.58;98717.81;5079753;28;19951;-72
2022/04/25 12:04:13;;;;;;;;;;;;;;;15.36;68.25;98719.94;5087981;28;19943;-71
2022/04/25 12:06:47;;;;;;;;;;;;;;;15.45;68.05;98721.41;5095654;28;19927;-71
2022/04/25 12:17:14;;;;;;;;;;;;;;;15.46;68.22;98731.63;5085611;28;19927;-72
2022/04/25 12:19:57;;;;;;;;;;;;;;;15.41;68.73;98738.63;5075360;28;19926;-73
2022/04/25 12:22:26;;;;;;;;;;;;;;;15.37;68.66;98735.34;5057163;28;20014;-73
2022/04/25 12:25:09;;;;;;;;;;;;;;;15.45;67.89;98736.84;5075180;28;19920;-73
2022/04/25 12:27:38;;;;;;;;;;;;;;;15.55;67.36;98743.34;5075220;28;19924;-74
2022/04/25 12:30:09;;;;;;;;;;;;;;;15.58;67.24;98736.34;5076070;28;19924;-73
2022/04/25 12:32:38;;;;;;;;;;;;;;;15.61;66.90;98736.22;5075366;28;20336;-73
2022/04/25 12:35:18;;;;;;;;;;;;;;;15.67;65.86;98743.72;5075246;28;19920;-73
2022/04/25 12:37:46;;;;;;;;;;;;;;;15.76;65.42;98742.56;5075544;28;19920;-71
2022/04/25 12:40:15;;;;;;;;;;;;;;;15.83;65.11;98744.00;5074977;28;19927;-71
2022/04/25 12:42:44;;;;;;;;;;;;;;;15.83;65.18;98750.00;5074762;28;19920;-72
2022/04/25 12:45:14;;;;;;;;;;;;;;;15.89;65.06;98749.75;5074578;28;19973;-73
2022/04/25 12:47:46;;;;;;;;;;;;;;;15.87;64.80;98748.97;5074595;28;20321;-72
2022/04/25 12:50:15;;;;;;;;;;;;;;;15.95;64.86;98757.25;5074700;28;19958;-72
2022/04/25 12:52:49;;;;;;;;;;;;;;;16.05;64.65;98756.00;5073508;28;19921;-72
2022/04/25 12:55:18;;;;;;;;;;;;;;;16.10;64.24;98754.09;5074662;28;20015;-73
2022/04/25 12:57:52;;;;;;;;;;;;;;;16.00;63.27;98765.63;5075205;28;19927;-71
2022/04/25 13:00:22;;;;;;;;;;;;;;;15.92;63.74;98772.81;5090514;28;20266;-72
2022/04/25 13:02:51;;;;;;;;;;;;;;;15.78;64.88;98771.63;5086762;28;20010;-72
2022/04/25 13:05:20;;;;;;;;;;;;;;;15.61;65.37;98784.25;5075297;28;20042;-72
2022/04/25 13:07:50;;;;;;;;;;;;;;;15.32;66.21;98785.25;5074741;28;19977;-72
2022/04/25 13:10:19;;;;;;;;;;;;;;;14.98;68.44;98792.38;5042572;28;20010;-72
2022/04/25 13:12:50;;;;;;;;;;;;;;;14.57;71.02;98806.53;5079576;28;19920;-72
2022/04/25 13:15:20;;;;;;;;;;;;;;;14.27;72.77;98810.88;5074589;28;19920;-74
2022/04/25 13:17:51;;;;;;;;;;;;;;;14.07;73.92;98813.16;5074685;28;19986;-74
2022/04/25 13:20:21;;;;;;;;;;;;;;;13.82;74.95;98819.88;5079600;28;19959;-75
2022/04/25 13:22:50;;;;;;;;;;;;;;;13.54;75.61;98832.56;5091605;28;19920;-74
2022/04/25 13:25:20;;;;;;;;;;;;;;;13.32;76.16;98829.72;5094627;28;19920;-73
2022/04/25 13:27:50;;;;;;;;;;;;;;;13.16;76.39;98836.13;5094026;28;19920;-72
2022/04/25 13:30:20;;;;;;;;;;;;;;;13.03;76.57;98837.25;5094818;28;20435;-71
2022/04/25 13:32:53;;;;;;;;;;;;;;;12.98;76.65;98839.09;5093451;28;19923;-72
2022/04/25 13:35:24;;;;;;;;;;;;;;;13.03;77.00;98834.69;5094385;28;19924;-72
2022/04/25 13:37:52;;;;;;;;;;;;;;;13.05;76.77;98830.38;5094511;28;19920;-72
2022/04/25 13:40:21;;;;;;;;;;;;;;;13.06;77.33;98847.47;5094136;28;19965;-74
2022/04/25 13:42:52;;;;;;;;;;;;;;;13.10;77.39;98849.06;5094442;28;20357;-72